createdAt,value
2022-10-26T00:01:39.309Z,4.22
2022-10-26T00:04:15.275Z,3.80
2022-10-26T00:09:19.146Z,4.32
2022-10-26T00:11:55.560Z,3.72
2022-10-26T00:14:30.953Z,3.70
2022-10-26T00:17:00.090Z,3.85
2022-10-26T00:19:35.661Z,3.95
2022-10-26T00:22:06.453Z,3.75
2022-10-26T00:24:36.295Z,3.72
2022-10-26T00:27:08.412Z,3.58
2022-10-26T00:29:39.833Z,3.37
2022-10-26T00:32:09.470Z,3.83
2022-10-26T00:34:42.813Z,3.58
2022-10-26T00:37:13.155Z,3.17
2022-10-26T00:39:49.293Z,3.85
2022-10-26T00:42:23.023Z,3.83
2022-10-26T00:45:03.193Z,4.18
2022-10-26T00:47:46.055Z,3.83
2022-10-26T00:50:29.770Z,4.20
2022-10-26T00:53:00.323Z,4.22
2022-10-26T00:55:44.681Z,3.78
2022-10-26T00:58:15.693Z,3.70
2022-10-26T01:00:49.995Z,4.30
2022-10-26T01:03:25.717Z,3.62
2022-10-26T01:06:00.920Z,3.30
2022-10-26T01:08:34.471Z,3.17
2022-10-26T01:11:11.264Z,3.20
2022-10-26T01:13:44.452Z,3.87
2022-10-26T01:16:41.987Z,3.72
2022-10-26T01:19:23.983Z,3.20
2022-10-26T01:22:19.534Z,2.97
2022-10-26T01:24:58.961Z,3.35
2022-10-26T01:27:44.401Z,2.92
2022-10-26T01:30:34.758Z,3.10
2022-10-26T01:33:44.769Z,3.50
2022-10-26T01:36:46.585Z,3.47
2022-10-26T01:39:23.207Z,3.15
2022-10-26T01:42:01.497Z,3.72
2022-10-26T01:44:42.498Z,3.45
2022-10-26T01:47:16.809Z,4.10
2022-10-26T01:49:51.638Z,3.60
2022-10-26T01:52:27.653Z,3.80
2022-10-26T01:55:27.592Z,3.70
2022-10-26T01:58:04.481Z,3.58
2022-10-26T02:00:41.753Z,3.97
2022-10-26T02:03:27.490Z,3.95
2022-10-26T02:06:24.102Z,3.45
2022-10-26T02:11:42.089Z,3.17
2022-10-26T02:14:22.482Z,2.78
2022-10-26T02:17:06.753Z,3.45
2022-10-26T02:19:43.350Z,3.58
2022-10-26T02:22:15.242Z,3.22
2022-10-26T02:24:44.494Z,3.47
2022-10-26T02:27:16.994Z,3.33
2022-10-26T02:29:46.050Z,3.33
2022-10-26T02:32:14.652Z,3.40
2022-10-26T02:34:45.222Z,3.10
2022-10-26T02:37:16.365Z,2.95
2022-10-26T02:39:51.460Z,3.47
2022-10-26T02:42:25.193Z,3.47
2022-10-26T02:45:00.795Z,3.17
2022-10-26T02:47:30.191Z,3.35
2022-10-26T02:49:58.933Z,3.40
2022-10-26T02:52:49.008Z,3.37
2022-10-26T02:55:27.659Z,2.80
2022-10-26T02:58:03.617Z,3.22
2022-10-26T03:00:32.840Z,3.03
2022-10-26T03:03:03.759Z,2.90
2022-10-26T03:05:37.231Z,2.60
2022-10-26T03:08:08.394Z,2.90
2022-10-26T03:10:45.617Z,2.95
2022-10-26T03:13:19.369Z,2.95
2022-10-26T03:15:50.341Z,2.95
2022-10-26T03:18:28.225Z,2.80
2022-10-26T03:21:01.587Z,3.20
2022-10-26T03:23:31.433Z,3.37
2022-10-26T03:26:09.426Z,2.85
2022-10-26T03:28:38.252Z,2.60
2022-10-26T03:31:09.895Z,3.62
2022-10-26T03:33:38.836Z,3.35
2022-10-26T03:36:07.847Z,3.28
2022-10-26T03:38:40.073Z,3.83
2022-10-26T03:41:11.049Z,3.58
2022-10-26T03:43:43.085Z,3.35
2022-10-26T03:46:14.546Z,3.37
2022-10-26T03:48:49.996Z,3.65
2022-10-26T03:51:21.396Z,3.08
2022-10-26T03:53:52.193Z,3.92
2022-10-26T03:56:24.185Z,3.28
2022-10-26T03:58:55.425Z,3.92
2022-10-26T04:01:23.352Z,3.70
2022-10-26T04:03:52.542Z,3.60
2022-10-26T04:06:21.209Z,4.07
2022-10-26T04:08:52.784Z,4.32
2022-10-26T04:11:32.777Z,3.17
2022-10-26T04:14:04.334Z,3.35
2022-10-26T04:16:33.603Z,2.80
2022-10-26T04:19:07.696Z,3.47
2022-10-26T04:21:39.097Z,3.97
2022-10-26T04:24:07.278Z,4.78
2022-10-26T04:26:35.104Z,4.30
2022-10-26T04:29:06.978Z,4.55
2022-10-26T04:31:35.853Z,3.22
2022-10-26T04:34:06.677Z,2.95
2022-10-26T04:36:40.306Z,3.55
2022-10-26T04:39:12.745Z,3.62
2022-10-26T04:41:42.622Z,3.97
2022-10-26T04:44:19.317Z,4.20
2022-10-26T04:46:55.091Z,4.10
2022-10-26T04:49:29.646Z,4.20
2022-10-26T04:52:00.918Z,3.72
2022-10-26T04:57:03.530Z,2.67
2022-10-26T04:59:37.345Z,2.53
2022-10-26T05:02:07.449Z,2.40
2022-10-26T05:04:37.719Z,2.22
2022-10-26T05:07:07.473Z,2.75
2022-10-26T05:09:41.451Z,2.62
2022-10-26T05:12:18.389Z,2.92
2022-10-26T05:15:03.996Z,3.83
2022-10-26T05:17:41.423Z,4.35
2022-10-26T05:20:18.629Z,3.85
2022-10-26T05:23:05.792Z,4.22
2022-10-26T05:25:38.367Z,3.42
2022-10-26T05:28:15.766Z,4.00
2022-10-26T05:30:52.815Z,3.83
2022-10-26T05:33:25.295Z,4.10
2022-10-26T05:35:58.194Z,3.25
2022-10-26T05:38:50.820Z,3.22
2022-10-26T05:41:28.913Z,3.62
2022-10-26T05:47:40.968Z,3.45
2022-10-26T05:53:35.118Z,4.97
2022-10-26T05:56:30.058Z,4.10
2022-10-26T05:59:10.341Z,4.05
2022-10-26T06:02:01.029Z,4.57
2022-10-26T06:32:41.886Z,5.60
2022-10-26T06:35:34.726Z,5.80
2022-10-26T06:38:20.089Z,5.07
2022-10-26T06:41:05.704Z,5.82
2022-10-26T06:44:00.832Z,6.32
2022-10-26T06:47:12.065Z,6.20
2022-10-26T06:52:43.180Z,6.72
2022-10-26T06:55:49.346Z,7.85
2022-10-26T07:02:15.916Z,7.75
2022-10-26T07:07:54.237Z,7.53
2022-10-26T07:10:30.075Z,8.98
2022-10-26T07:13:25.313Z,9.23
2022-10-26T07:34:07.428Z,9.10
2022-10-26T07:39:50.591Z,9.85
2022-10-26T07:42:22.192Z,10.02
2022-10-26T07:45:08.350Z,10.45
2022-10-26T07:47:57.896Z,10.18
2022-10-26T07:50:52.261Z,10.80
2022-10-26T07:53:31.022Z,8.60
2022-10-26T07:56:12.618Z,9.18
2022-10-26T07:59:05.614Z,9.23
2022-10-26T08:40:53.002Z,9.85
2022-10-26T08:43:44.059Z,9.65
2022-10-26T08:46:24.485Z,9.10
2022-10-26T08:49:01.230Z,8.98
2022-10-26T08:51:39.327Z,9.18
2022-10-26T08:54:46.031Z,8.43
2022-10-26T08:57:28.624Z,8.88
2022-10-26T09:35:27.534Z,12.00
2022-10-26T09:42:12.471Z,11.63
2022-10-26T09:45:12.055Z,11.00
2022-10-26T09:48:05.168Z,12.57
2022-10-26T09:50:36.701Z,13.38
2022-10-26T09:53:16.140Z,13.68
2022-10-26T09:56:02.742Z,13.45
2022-10-26T09:59:25.904Z,14.13
2022-10-26T10:02:19.712Z,16.42
2022-10-26T10:05:05.762Z,16.95
2022-10-26T10:07:59.756Z,18.67
2022-10-26T10:10:46.316Z,17.95
2022-10-26T10:14:14.942Z,15.73
2022-10-26T10:17:11.354Z,15.50
2022-10-26T10:20:02.387Z,16.17
2022-10-26T10:22:43.271Z,18.90
2022-10-26T10:25:54.407Z,18.23
2022-10-26T10:28:46.573Z,20.25
2022-10-26T10:31:36.197Z,20.52
2022-10-26T10:34:22.222Z,20.80
2022-10-26T10:37:01.799Z,20.77
2022-10-26T10:40:09.325Z,22.45
2022-10-26T10:43:16.446Z,21.85
2022-10-26T11:54:39.043Z,15.40
2022-10-26T13:51:47.124Z,7.25
2022-10-26T13:54:50.308Z,7.12
2022-10-26T14:00:23.527Z,7.57
2022-10-26T14:02:52.088Z,7.37
2022-10-26T14:05:20.604Z,7.70
2022-10-26T14:08:00.715Z,8.70
2022-10-26T14:10:41.758Z,7.15
2022-10-26T14:13:18.216Z,8.30
2022-10-26T14:15:50.454Z,7.82
2022-10-26T14:18:24.297Z,7.68
2022-10-26T14:21:16.141Z,7.95
2022-10-26T14:23:59.470Z,8.48
2022-10-26T14:26:39.679Z,8.23
2022-10-26T14:29:24.297Z,7.60
2022-10-26T14:31:58.092Z,8.48
2022-10-26T14:34:34.559Z,8.77
2022-10-26T14:37:15.164Z,8.82
2022-10-26T14:39:46.442Z,8.95
2022-10-26T14:42:38.782Z,7.35
2022-10-26T14:45:47.195Z,7.47
2022-10-26T14:48:27.235Z,7.43
2022-10-26T14:51:09.806Z,8.35
2022-10-26T14:53:40.909Z,8.30
2022-10-26T14:56:29.020Z,9.10
2022-10-26T14:58:58.795Z,8.77
2022-10-26T15:01:35.717Z,7.15
2022-10-26T15:04:07.777Z,7.25
2022-10-26T15:09:51.713Z,8.00
2022-10-26T15:12:20.180Z,8.50
2022-10-26T15:14:54.013Z,8.13
2022-10-26T15:17:27.809Z,8.45
2022-10-26T15:20:08.081Z,8.48
2022-10-26T15:22:49.419Z,8.30
2022-10-26T15:25:35.402Z,8.77
2022-10-26T15:28:42.618Z,8.52
2022-10-26T15:31:14.764Z,8.48
2022-10-26T15:33:56.163Z,8.07
2022-10-26T15:36:28.432Z,8.55
2022-10-26T15:38:59.125Z,8.57
2022-10-26T15:41:32.786Z,8.80
2022-10-26T15:44:19.315Z,8.60
2022-10-26T15:47:08.976Z,10.93
2022-10-26T15:49:42.570Z,10.57
2022-10-26T15:52:18.256Z,11.25
2022-10-26T15:54:48.721Z,8.95
2022-10-26T15:57:34.313Z,14.40
2022-10-26T16:00:05.102Z,12.07
2022-10-26T16:02:42.481Z,11.43
2022-10-26T16:05:19.443Z,10.68
2022-10-26T16:07:52.144Z,11.20
2022-10-26T16:10:25.099Z,11.55
2022-10-26T16:13:04.859Z,11.20
2022-10-26T16:15:42.492Z,10.85
2022-10-26T16:18:12.591Z,11.40
2022-10-26T16:20:46.371Z,10.38
2022-10-26T16:23:14.341Z,13.03
2022-10-26T16:28:22.343Z,12.32
2022-10-26T16:31:01.730Z,13.23
2022-10-26T16:33:31.701Z,12.73
2022-10-26T16:36:02.287Z,13.13
2022-10-26T16:38:33.109Z,10.07
2022-10-26T16:41:09.331Z,7.20
2022-10-26T16:43:41.499Z,8.02
2022-10-26T16:46:21.222Z,7.80
2022-10-26T16:48:53.230Z,8.57
2022-10-26T16:51:23.618Z,8.23
2022-10-26T16:53:56.389Z,7.85
2022-10-26T16:59:07.944Z,10.88
2022-10-26T17:01:37.123Z,8.73
2022-10-26T17:04:10.546Z,7.47
2022-10-26T17:06:40.768Z,7.45
2022-10-26T17:09:10.788Z,6.32
2022-10-26T17:11:40.575Z,6.25
2022-10-26T17:14:10.921Z,6.68
2022-10-26T17:16:40.932Z,6.65
2022-10-26T17:19:11.349Z,7.45
2022-10-26T17:21:44.348Z,7.62
2022-10-26T17:24:14.049Z,6.78
2022-10-26T17:26:45.778Z,6.85
2022-10-26T17:29:14.374Z,7.05
2022-10-26T17:31:44.603Z,7.93
2022-10-26T17:34:13.763Z,8.55
2022-10-26T17:36:42.314Z,8.48
2022-10-26T17:39:30.339Z,8.65
2022-10-26T17:42:00.426Z,9.50
2022-10-26T17:44:29.466Z,9.02
2022-10-26T17:47:00.796Z,9.43
2022-10-26T17:49:36.014Z,9.13
2022-10-26T17:52:08.756Z,7.43
2022-10-26T17:54:42.509Z,7.43
2022-10-26T17:57:13.300Z,8.07
2022-10-26T17:59:48.851Z,7.50
2022-10-26T18:02:18.087Z,7.07
2022-10-26T18:04:47.950Z,8.77
2022-10-26T18:07:18.013Z,9.27
2022-10-26T18:09:49.891Z,10.13
2022-10-26T18:12:21.906Z,9.48
2022-10-26T18:14:55.831Z,10.50
2022-10-26T18:17:27.214Z,10.43
2022-10-26T18:22:31.774Z,12.05
2022-10-26T18:25:02.763Z,13.35
2022-10-26T18:27:31.109Z,13.02
2022-10-26T18:30:01.704Z,13.50
2022-10-26T18:32:31.926Z,14.10
2022-10-26T18:35:03.247Z,15.05
2022-10-26T18:37:39.053Z,13.82
2022-10-26T18:40:08.152Z,11.23
2022-10-26T18:42:38.730Z,11.05
2022-10-26T18:45:08.841Z,11.80
2022-10-26T18:47:39.825Z,11.00
2022-10-26T18:50:09.591Z,12.45
2022-10-26T18:52:41.242Z,12.60
2022-10-26T18:55:21.204Z,13.45
2022-10-26T18:57:49.586Z,14.60
2022-10-26T19:00:18.560Z,15.77
2022-10-26T19:02:51.518Z,16.40
2022-10-26T19:05:23.772Z,15.95
2022-10-26T19:07:52.278Z,16.60
2022-10-26T19:10:24.694Z,11.07
2022-10-26T19:12:57.697Z,11.98
2022-10-26T19:15:30.581Z,12.40
2022-10-26T19:18:02.987Z,13.07
2022-10-26T19:20:38.653Z,10.73
2022-10-26T19:23:14.544Z,11.73
2022-10-26T19:25:47.161Z,12.20
2022-10-26T19:28:16.478Z,10.13
2022-10-26T19:30:46.449Z,9.55
2022-10-26T19:33:16.377Z,9.75
2022-10-26T19:35:47.876Z,10.05
2022-10-26T19:38:23.392Z,10.25
2022-10-26T19:41:09.376Z,10.18
2022-10-26T19:43:39.649Z,10.77
2022-10-26T19:46:15.908Z,12.18
2022-10-26T19:48:53.007Z,12.60
2022-10-26T19:51:27.808Z,10.82
2022-10-26T19:54:03.219Z,10.43
2022-10-26T19:56:34.474Z,10.25
2022-10-26T19:59:07.125Z,11.73
2022-10-26T20:01:40.112Z,11.50
2022-10-26T20:04:27.625Z,12.70
2022-10-26T20:06:57.267Z,11.07
2022-10-26T20:09:30.490Z,10.45
2022-10-26T20:11:59.485Z,11.43
2022-10-26T20:14:30.829Z,11.65
2022-10-26T20:17:01.239Z,12.02
2022-10-26T20:19:31.343Z,11.63
2022-10-26T20:22:03.144Z,11.90
2022-10-26T20:24:33.871Z,11.60
2022-10-26T20:27:07.483Z,12.13
2022-10-26T20:29:39.975Z,11.48
2022-10-26T20:32:16.010Z,11.57
2022-10-26T20:34:48.130Z,11.80
2022-10-26T20:37:17.765Z,11.30
2022-10-26T20:39:52.873Z,10.68
2022-10-26T20:42:24.504Z,9.65
2022-10-26T20:45:15.672Z,8.48
2022-10-26T20:47:44.713Z,8.90
2022-10-26T20:50:14.832Z,9.13
2022-10-26T20:52:57.264Z,9.07
2022-10-26T20:55:41.874Z,7.93
2022-10-26T20:58:32.840Z,7.30
2022-10-26T21:01:03.341Z,8.13
2022-10-26T21:03:32.343Z,7.40
2022-10-26T21:06:00.991Z,8.18
2022-10-26T21:08:30.112Z,7.70
2022-10-26T21:10:58.980Z,8.02
2022-10-26T21:13:28.467Z,8.82
2022-10-26T21:15:57.646Z,9.40
2022-10-26T21:18:26.192Z,10.27
2022-10-26T21:20:58.511Z,10.20
2022-10-26T21:23:34.287Z,10.85
2022-10-26T21:26:03.432Z,11.10
2022-10-26T21:28:45.843Z,10.73
2022-10-26T21:31:21.425Z,11.65
2022-10-26T21:33:51.518Z,10.95
2022-10-26T21:36:20.545Z,11.27
2022-10-26T21:38:49.447Z,11.82
2022-10-26T21:41:21.926Z,11.20
2022-10-26T21:43:59.197Z,11.65
2022-10-26T21:46:38.642Z,11.35
2022-10-26T21:49:07.836Z,11.10
2022-10-26T21:51:35.666Z,11.77
2022-10-26T21:54:04.657Z,12.00
2022-10-26T21:56:34.179Z,13.53
2022-10-26T21:59:06.483Z,12.57
2022-10-26T22:01:38.162Z,12.75
2022-10-26T22:04:10.821Z,13.10
2022-10-26T22:06:39.251Z,11.82
2022-10-26T22:09:10.534Z,12.43
2022-10-26T22:11:40.184Z,12.10
2022-10-26T22:14:11.847Z,12.97
2022-10-26T22:16:42.944Z,13.05
2022-10-26T22:19:12.505Z,11.90
2022-10-26T22:21:45.569Z,12.60
2022-10-26T22:24:15.293Z,12.23
2022-10-26T22:26:47.071Z,13.02
2022-10-26T22:29:15.999Z,12.60
2022-10-26T22:31:48.262Z,13.18
2022-10-26T22:34:20.559Z,13.05
2022-10-26T22:36:54.609Z,13.52
2022-10-26T22:39:25.351Z,12.23
2022-10-26T22:41:56.600Z,11.95
2022-10-26T22:44:28.430Z,12.35
2022-10-26T22:47:03.068Z,13.55
2022-10-26T22:49:33.401Z,13.10
2022-10-26T22:52:09.394Z,13.32
2022-10-26T22:54:40.649Z,13.13
2022-10-26T22:57:15.620Z,13.52
2022-10-26T22:59:45.690Z,12.55
2022-10-26T23:02:17.875Z,12.45
2022-10-26T23:04:56.671Z,12.98
2022-10-26T23:10:01.507Z,11.95
2022-10-26T23:12:34.688Z,13.55
2022-10-26T23:15:04.569Z,12.93
2022-10-26T23:17:34.979Z,12.55
2022-10-26T23:20:03.993Z,12.40
2022-10-26T23:22:33.434Z,12.37
2022-10-26T23:25:04.316Z,12.88
2022-10-26T23:27:34.058Z,12.55
2022-10-26T23:30:06.498Z,12.68
2022-10-26T23:32:37.415Z,12.68
2022-10-26T23:35:11.978Z,14.43
2022-10-26T23:37:43.009Z,13.55
2022-10-26T23:40:14.189Z,14.90
2022-10-26T23:42:43.680Z,14.73
2022-10-26T23:45:17.867Z,14.13
2022-10-26T23:47:48.014Z,13.25
2022-10-26T23:50:24.781Z,12.75
2022-10-26T23:52:55.416Z,12.25
2022-10-26T23:55:28.274Z,12.68
2022-10-26T23:57:59.791Z,12.30
